Time;durP1;ratioP1;P1;durP2;ratioP2;P2;SDS_P1;SDS_P2;PMS_P1;PMS_P2;Temp;Humidity;BMP_temperature;BMP_pressure;BME280_temperature;BME280_humidity;BME280_pressure;Samples;Min_cycle;Max_cycle;Signal;HPM_P1;HPM_P2
2023/06/02 00:01:33;;;;;;;8.98;2.78;;;;;;;14.36;74.33;101973.56;4949551;29;20047;-45
2023/06/02 00:04:04;;;;;;;8.13;2.95;;;;;;;14.30;74.19;101969.31;4950895;29;20127;-45
2023/06/02 00:06:33;;;;;;;5.18;2.38;;;;;;;14.28;74.31;101971.66;4951168;29;20114;-46
2023/06/02 00:09:04;;;;;;;6.60;2.47;;;;;;;14.28;74.27;101971.66;4934268;29;20052;-44
2023/06/02 00:11:36;;;;;;;8.18;2.70;;;;;;;14.28;74.34;101971.66;4950320;29;20138;-45
2023/06/02 00:14:05;;;;;;;7.57;2.58;;;;;;;14.25;74.64;101972.31;4951239;29;20043;-45
2023/06/02 00:16:41;;;;;;;7.30;2.30;;;;;;;14.22;74.69;101981.34;4951150;29;20110;-47
2023/06/02 00:19:11;;;;;;;7.30;2.67;;;;;;;14.21;74.57;101971.38;4951036;29;20490;-48
2023/06/02 00:21:40;;;;;;;14.00;3.08;;;;;;;14.21;74.46;101966.63;4951147;29;20095;-45
2023/06/02 00:24:08;;;;;;;6.45;2.45;;;;;;;14.21;74.48;101972.22;4959106;28;20103;-44
2023/06/02 00:26:35;;;;;;;8.52;2.35;;;;;;;14.19;74.43;101979.28;4950459;29;20421;-45
2023/06/02 00:29:02;;;;;;;10.90;3.33;;;;;;;14.15;74.19;101979.13;4949849;29;20035;-51
2023/06/02 00:31:29;;;;;;;8.15;2.83;;;;;;;14.10;74.39;101975.72;4950115;28;20073;-45
2023/06/02 00:33:56;;;;;;;6.45;2.60;;;;;;;14.06;74.51;101969.22;4950107;29;20076;-44
2023/06/02 00:36:22;;;;;;;8.70;2.53;;;;;;;14.04;74.34;101973.16;4950769;29;20429;-45
2023/06/02 00:38:49;;;;;;;6.90;2.13;;;;;;;14.01;74.38;101979.38;4950550;29;20478;-44
2023/06/02 00:41:17;;;;;;;7.90;2.33;;;;;;;13.98;74.42;101976.47;4950449;29;20588;-47
2023/06/02 00:43:44;;;;;;;7.80;2.35;;;;;;;13.97;74.23;101975.66;4950476;29;20494;-44
2023/06/02 00:46:10;;;;;;;9.10;2.13;;;;;;;13.95;74.18;101974.38;4949680;29;20114;-45
2023/06/02 00:48:38;;;;;;;9.88;2.70;;;;;;;13.91;74.28;101971.44;4950913;29;20060;-51
2023/06/02 00:51:05;;;;;;;9.77;3.35;;;;;;;13.87;73.99;101972.47;4950615;28;20082;-47
2023/06/02 00:53:33;;;;;;;9.25;2.65;;;;;;;13.84;74.25;101967.56;4954439;29;20053;-45
2023/06/02 00:56:00;;;;;;;8.25;2.67;;;;;;;13.81;74.43;101966.28;4953766;29;20047;-49
2023/06/02 00:58:29;;;;;;;8.82;2.38;;;;;;;13.78;74.59;101961.38;4954354;29;20394;-44
2023/06/02 01:00:55;;;;;;;7.35;2.40;;;;;;;13.74;74.28;101963.19;4952366;28;20050;-46
2023/06/02 01:03:26;;;;;;;8.50;2.83;;;;;;;13.72;74.59;101957.16;4952963;28;20173;-45
2023/06/02 01:05:55;;;;;;;12.20;3.00;;;;;;;13.69;74.77;101960.59;4936907;29;20051;-45
2023/06/02 01:08:23;;;;;;;11.25;2.53;;;;;;;13.69;74.70;101968.13;4953825;29;20606;-48
2023/06/02 01:10:51;;;;;;;7.47;2.55;;;;;;;13.69;74.82;101970.91;4954242;28;20387;-48
2023/06/02 01:13:18;;;;;;;5.72;2.38;;;;;;;13.69;74.79;101965.34;4954114;29;20098;-53
2023/06/02 01:15:47;;;;;;;5.97;2.67;;;;;;;13.64;74.79;101958.00;4954291;29;20567;-44
2023/06/02 01:18:16;;;;;;;8.27;2.60;;;;;;;13.61;74.97;101964.25;4954311;29;20081;-49
2023/06/02 01:20:49;;;;;;;11.90;2.85;;;;;;;13.59;75.06;101972.13;4953482;29;20039;-47
2023/06/02 01:23:23;;;;;;;8.48;2.63;;;;;;;13.56;74.90;101967.22;4953764;29;20519;-45
2023/06/02 01:25:54;;;;;;;9.40;3.22;;;;;;;13.52;75.06;101960.72;4944096;29;20087;-51
2023/06/02 01:28:21;;;;;;;16.13;3.03;;;;;;;13.49;75.14;101963.34;4954024;29;20047;-45
2023/06/02 01:30:50;;;;;;;8.40;2.75;;;;;;;13.46;75.19;101967.63;4952794;28;20058;-45
2023/06/02 01:33:30;;;;;;;11.50;3.08;;;;;;;13.47;75.50;101968.44;4952882;29;20146;-50
2023/06/02 01:35:59;;;;;;;9.45;2.63;;;;;;;13.47;75.44;101962.88;4953755;29;20075;-45
2023/06/02 01:38:29;;;;;;;8.65;2.95;;;;;;;13.45;75.24;101960.41;4935387;29;20386;-44
2023/06/02 01:40:58;;;;;;;7.00;2.65;;;;;;;13.43;75.44;101957.16;4953544;29;20394;-48
2023/06/02 01:43:27;;;;;;;7.40;2.03;;;;;;;13.38;75.63;101963.72;4936628;29;20054;-45
2023/06/02 01:45:55;;;;;;;10.95;3.55;;;;;;;13.35;75.77;101967.19;4953181;29;20043;-45
2023/06/02 01:48:22;;;;;;;11.95;3.10;;;;;;;13.36;75.77;101973.56;4953631;29;20243;-48
2023/06/02 01:50:49;;;;;;;8.95;2.85;;;;;;;13.35;75.61;101972.75;4953120;29;20494;-49
2023/06/02 01:53:17;;;;;;;8.38;3.67;;;;;;;13.34;75.64;101964.75;4953601;29;20067;-48
2023/06/02 01:55:44;;;;;;;12.95;3.72;;;;;;;13.32;75.67;101962.28;4953005;29;20058;-45
2023/06/02 01:58:11;;;;;;;15.82;3.67;;;;;;;13.29;75.74;101967.72;4953609;29;20058;-44
2023/06/02 02:00:37;;;;;;;7.65;3.05;;;;;;;13.25;75.86;101978.69;4951121;29;20517;-49
2023/06/02 02:03:07;;;;;;;7.15;3.08;;;;;;;13.23;76.08;101972.63;4952920;28;20051;-45
2023/06/02 02:05:34;;;;;;;12.20;3.15;;;;;;;13.19;76.08;101963.31;4952725;28;20066;-49
2023/06/02 02:08:03;;;;;;;11.45;2.85;;;;;;;13.18;76.06;101972.00;4935272;29;20395;-45
2023/06/02 02:10:30;;;;;;;9.82;2.63;;;;;;;13.16;76.06;101979.84;4952153;29;20047;-44
2023/06/02 02:12:57;;;;;;;9.07;3.63;;;;;;;13.11;76.16;101977.25;4952985;29;20039;-44
2023/06/02 02:15:23;;;;;;;7.22;2.67;;;;;;;13.09;76.42;101971.22;4952968;29;20344;-50
2023/06/02 02:17:51;;;;;;;12.45;2.58;;;;;;;13.05;76.52;101965.44;4953133;29;20043;-45
2023/06/02 02:20:18;;;;;;;5.10;3.15;;;;;;;13.05;76.65;101968.22;4953194;29;20126;-45
2023/06/02 02:22:46;;;;;;;5.53;2.85;;;;;;;13.02;76.81;101973.66;4952826;29;20433;-45
2023/06/02 02:25:14;;;;;;;7.72;2.65;;;;;;;13.00;76.83;101973.19;4953776;28;20039;-44
2023/06/02 02:27:41;;;;;;;13.85;3.85;;;;;;;12.98;77.04;101961.56;4959114;28;20516;-44
2023/06/02 02:30:08;;;;;;;14.68;2.90;;;;;;;12.95;76.98;101970.56;4933240;29;20051;-45
2023/06/02 02:32:38;;;;;;;15.10;3.67;;;;;;;12.93;77.07;101967.28;4952712;29;20103;-44
2023/06/02 02:35:06;;;;;;;10.57;3.00;;;;;;;12.90;77.26;101963.22;4940201;29;20078;-51
2023/06/02 02:37:33;;;;;;;11.82;3.20;;;;;;;12.87;77.11;101961.09;4953139;29;20094;-44
2023/06/02 02:40:12;;;;;;;15.07;4.07;;;;;;;12.84;77.27;101967.31;4952608;29;20055;-44
2023/06/02 02:42:39;;;;;;;8.50;2.13;;;;;;;12.80;77.35;101971.91;4952434;29;20051;-47
2023/06/02 02:45:07;;;;;;;10.15;2.75;;;;;;;12.81;77.20;101968.00;4951653;29;20099;-44
2023/06/02 02:47:35;;;;;;;11.65;3.38;;;;;;;12.78;77.38;101966.69;4951807;29;20490;-45
2023/06/02 02:50:03;;;;;;;6.03;2.28;;;;;;;12.75;77.45;101974.88;4934377;29;20130;-45
2023/06/02 02:52:30;;;;;;;10.65;3.10;;;;;;;12.74;77.59;101976.00;4952280;29;20039;-44
2023/06/02 02:54:57;;;;;;;18.08;3.45;;;;;;;12.72;77.59;101975.53;4952528;29;20098;-44
2023/06/02 02:57:24;;;;;;;15.93;3.17;;;;;;;12.70;77.58;101978.66;4951980;29;20059;-44
2023/06/02 02:59:52;;;;;;;19.73;3.53;;;;;;;12.68;77.58;101964.25;4950972;29;20077;-44
2023/06/02 03:02:19;;;;;;;7.13;2.60;;;;;;;12.65;77.80;101976.03;4972762;23;20469;-44
2023/06/02 03:04:46;;;;;;;8.30;3.30;;;;;;;12.63;77.65;101972.75;4951918;29;20075;-44
2023/06/02 03:07:13;;;;;;;17.50;3.67;;;;;;;12.63;77.96;101969.97;4952222;29;20055;-46
2023/06/02 03:09:40;;;;;;;7.57;2.65;;;;;;;12.62;77.74;101970.31;4952194;29;20047;-52
2023/06/02 03:12:08;;;;;;;10.07;2.80;;;;;;;12.61;77.85;101972.28;4952213;29;20489;-47
2023/06/02 03:14:36;;;;;;;7.85;3.25;;;;;;;12.59;77.96;101974.56;4951173;28;20051;-46
2023/06/02 03:17:05;;;;;;;8.82;3.63;;;;;;;12.55;77.97;101968.03;4952069;29;20043;-46
2023/06/02 03:19:34;;;;;;;10.40;2.92;;;;;;;12.50;78.20;101968.19;4951430;29;20043;-44
2023/06/02 03:22:02;;;;;;;8.63;3.00;;;;;;;12.51;77.96;101972.63;4951993;29;20066;-47
2023/06/02 03:24:29;;;;;;;6.57;3.53;;;;;;;12.51;78.04;101969.84;4952261;29;20138;-44
2023/06/02 03:26:57;;;;;;;5.70;2.78;;;;;;;12.46;78.29;101967.25;4951763;29;20393;-47
2023/06/02 03:29:24;;;;;;;9.13;2.78;;;;;;;12.46;78.18;101978.34;4950581;28;20493;-44
2023/06/02 03:31:53;;;;;;;8.77;2.75;;;;;;;12.47;78.34;101977.19;4949925;29;20798;-44
2023/06/02 03:34:22;;;;;;;7.45;3.20;;;;;;;12.47;78.32;101981.94;4934122;29;20047;-44
2023/06/02 03:36:49;;;;;;;8.50;3.08;;;;;;;12.44;78.17;101972.31;4951091;29;20062;-44
2023/06/02 03:39:16;;;;;;;9.52;2.70;;;;;;;12.41;78.31;101981.28;4951239;29;20051;-52
2023/06/02 03:41:43;;;;;;;7.53;3.67;;;;;;;12.39;78.53;101978.00;4951432;29;21062;-44
2023/06/02 03:44:10;;;;;;;15.85;3.33;;;;;;;12.39;78.31;101980.78;4951124;29;20043;-44
2023/06/02 03:46:37;;;;;;;10.68;3.45;;;;;;;12.38;78.47;101970.84;4934556;29;20047;-51
2023/06/02 03:49:04;;;;;;;12.25;3.33;;;;;;;12.38;78.48;101976.38;4951156;29;20126;-46
2023/06/02 03:51:31;;;;;;;12.55;3.72;;;;;;;12.38;78.67;101973.63;4951328;29;20040;-44
2023/06/02 03:53:58;;;;;;;7.72;4.57;;;;;;;12.38;78.71;101970.00;4950383;29;20408;-44
2023/06/02 03:56:25;;;;;;;13.68;3.28;;;;;;;12.37;78.83;101980.31;4951565;29;20035;-46
2023/06/02 03:58:52;;;;;;;8.50;3.95;;;;;;;12.40;78.50;101979.66;4951443;29;20138;-44
2023/06/02 04:01:21;;;;;;;8.23;3.25;;;;;;;12.40;78.71;101974.09;4949585;29;20059;-49
2023/06/02 04:03:48;;;;;;;7.88;2.72;;;;;;;12.42;78.60;101984.88;4951114;29;20144;-44
2023/06/02 04:06:15;;;;;;;13.18;3.15;;;;;;;12.39;78.45;101980.00;4951277;29;20378;-45
2023/06/02 04:08:43;;;;;;;5.60;3.55;;;;;;;12.40;78.66;101978.81;4951643;29;20051;-44
2023/06/02 04:11:10;;;;;;;8.93;3.10;;;;;;;12.40;78.69;101985.22;4950559;29;20079;-44
2023/06/02 04:13:40;;;;;;;10.80;4.35;;;;;;;12.39;78.80;101989.13;4951346;29;20043;-44
2023/06/02 04:16:07;;;;;;;8.52;3.45;;;;;;;12.37;78.96;101991.41;4950775;29;20557;-45
2023/06/02 04:18:40;;;;;;;6.60;2.70;;;;;;;12.38;79.05;101981.94;4950922;29;20062;-44
2023/06/02 04:21:07;;;;;;;13.50;3.03;;;;;;;12.36;78.95;101989.78;4951265;29;20104;-44
2023/06/02 04:23:34;;;;;;;10.88;3.67;;;;;;;12.35;78.82;101995.66;4950753;29;20055;-44
2023/06/02 04:26:01;;;;;;;9.40;3.08;;;;;;;12.33;79.03;101987.66;4952145;28;20111;-44
2023/06/02 04:28:29;;;;;;;12.77;3.45;;;;;;;12.34;79.06;101992.06;4951955;29;20097;-44
2023/06/02 04:30:59;;;;;;;9.48;3.45;;;;;;;12.34;79.07;101996.81;4953290;28;20435;-44
2023/06/02 04:33:26;;;;;;;11.30;3.25;;;;;;;12.33;79.13;101995.19;4943471;29;20053;-47
2023/06/02 04:35:53;;;;;;;8.20;2.63;;;;;;;12.33;78.92;101990.44;4954844;29;20047;-43
2023/06/02 04:38:20;;;;;;;12.18;2.50;;;;;;;12.37;78.71;101990.59;4955173;29;20054;-43
2023/06/02 04:40:47;;;;;;;8.20;3.17;;;;;;;12.38;79.12;101993.06;4954505;29;20078;-53
2023/06/02 04:43:14;;;;;;;5.32;2.53;;;;;;;12.38;79.03;101998.59;4955301;29;20115;-44
2023/06/02 04:45:45;;;;;;;9.20;2.13;;;;;;;12.37;78.97;101991.41;4953688;29;20059;-44
2023/06/02 04:48:13;;;;;;;7.15;2.60;;;;;;;12.38;78.88;101995.84;4954914;29;20126;-44
2023/06/02 04:50:40;;;;;;;9.95;2.53;;;;;;;12.39;78.89;101989.13;4954462;29;20396;-44
2023/06/02 04:53:07;;;;;;;12.73;2.85;;;;;;;12.40;78.79;101984.38;4954489;29;20047;-44
2023/06/02 04:55:35;;;;;;;8.18;2.20;;;;;;;12.43;78.98;101984.56;4954231;29;20401;-44
2023/06/02 04:58:01;;;;;;;7.97;2.05;;;;;;;12.45;78.76;101993.38;4951187;29;20098;-43
2023/06/02 05:00:28;;;;;;;7.85;2.15;;;;;;;12.44;78.59;101990.94;4952921;29;20046;-51
2023/06/02 05:02:55;;;;;;;8.70;2.03;;;;;;;12.42;78.49;101985.69;4953855;29;20055;-44
2023/06/02 05:05:22;;;;;;;7.80;1.95;;;;;;;12.42;78.30;101988.47;4953853;29;20049;-48
2023/06/02 05:07:51;;;;;;;5.38;2.03;;;;;;;12.43;78.29;101986.50;4954067;29;20473;-44
2023/06/02 05:10:18;;;;;;;9.02;2.45;;;;;;;12.42;78.08;101990.41;4954296;29;20054;-44
2023/06/02 05:12:47;;;;;;;8.65;3.13;;;;;;;12.37;77.85;102001.69;4953967;29;20738;-44
2023/06/02 05:15:14;;;;;;;6.38;2.03;;;;;;;12.35;77.92;101993.69;4954055;29;20055;-44
2023/06/02 05:17:43;;;;;;;8.70;3.55;;;;;;;12.32;77.85;101997.13;4953392;29;20055;-44
2023/06/02 05:20:11;;;;;;;4.82;1.92;;;;;;;12.32;77.54;101993.53;4953856;28;20058;-44
2023/06/02 05:22:39;;;;;;;5.72;1.90;;;;;;;12.29;77.78;101994.19;4954276;29;20043;-44
2023/06/02 05:25:07;;;;;;;5.40;1.95;;;;;;;12.29;77.46;102000.56;4953758;29;20375;-44
2023/06/02 05:27:37;;;;;;;7.57;1.70;;;;;;;12.29;77.39;101995.00;4960623;28;20050;-45
2023/06/02 05:30:05;;;;;;;6.35;3.28;;;;;;;12.29;77.29;102000.56;4954602;28;20292;-45
2023/06/02 05:32:32;;;;;;;4.13;1.67;;;;;;;12.29;77.15;101996.94;4953805;29;20055;-44
2023/06/02 05:34:59;;;;;;;9.15;1.90;;;;;;;12.25;77.08;101999.59;4948596;29;20079;-44
2023/06/02 05:37:26;;;;;;;4.20;1.80;;;;;;;12.25;77.04;101996.81;4945190;28;20051;-44
2023/06/02 05:39:53;;;;;;;7.00;1.80;;;;;;;12.25;76.93;101991.25;4953428;28;20053;-44
2023/06/02 05:42:20;;;;;;;6.68;1.75;;;;;;;12.28;77.14;101998.94;4953883;29;20439;-43
2023/06/02 05:44:47;;;;;;;8.80;1.95;;;;;;;12.35;77.01;102004.81;4953626;29;20081;-44
2023/06/02 05:47:14;;;;;;;6.72;2.25;;;;;;;12.47;77.02;102006.94;4953790;29;20103;-44
2023/06/02 05:49:42;;;;;;;9.02;1.90;;;;;;;12.57;76.78;102007.44;4953178;29;20050;-44
2023/06/02 05:52:09;;;;;;;7.90;1.90;;;;;;;12.65;76.81;102005.78;4949922;29;20051;-46
2023/06/02 05:54:36;;;;;;;5.03;1.60;;;;;;;12.72;76.63;102003.31;4953264;29;20051;-44
2023/06/02 05:57:03;;;;;;;3.72;1.55;;;;;;;12.76;76.46;102010.66;4953454;29;20106;-44
2023/06/02 05:59:30;;;;;;;5.85;1.95;;;;;;;12.75;76.21;102008.22;4952877;29;20039;-44
2023/06/02 06:01:57;;;;;;;3.53;1.35;;;;;;;12.78;76.32;102013.13;4953078;29;20165;-44
2023/06/02 06:04:26;;;;;;;4.20;1.50;;;;;;;12.80;76.05;102011.66;4953291;29;20485;-44
2023/06/02 06:06:54;;;;;;;6.00;1.60;;;;;;;12.82;75.70;102005.75;4953250;29;20070;-44
2023/06/02 06:09:20;;;;;;;5.68;1.27;;;;;;;12.87;75.73;102015.91;4945489;29;20115;-46
2023/06/02 06:11:47;;;;;;;4.05;1.50;;;;;;;12.89;75.87;102008.84;4945041;28;20055;-45
2023/06/02 06:14:14;;;;;;;4.88;1.20;;;;;;;12.86;75.44;102014.25;4951043;29;20106;-46
2023/06/02 06:16:41;;;;;;;7.43;2.00;;;;;;;12.88;75.68;102003.63;4938702;29;20063;-50
2023/06/02 06:19:10;;;;;;;7.00;2.47;;;;;;;12.92;75.58;102007.38;4947393;29;20409;-45
2023/06/02 06:21:38;;;;;;;3.90;1.73;;;;;;;12.96;75.52;102006.38;4952836;29;20446;-44
2023/06/02 06:24:05;;;;;;;4.55;1.20;;;;;;;12.99;74.99;102004.91;4953037;29;20054;-44
2023/06/02 06:26:33;;;;;;;8.07;1.70;;;;;;;12.99;75.05;102008.50;4950761;29;20058;-44
2023/06/02 06:29:01;;;;;;;3.20;1.85;;;;;;;12.99;74.79;102010.47;4952611;29;20114;-46
2023/06/02 06:31:28;;;;;;;5.93;1.58;;;;;;;13.00;74.92;102004.56;4935646;29;20111;-44
2023/06/02 06:33:55;;;;;;;6.00;2.55;;;;;;;13.01;74.67;102011.75;4952938;29;20054;-44
2023/06/02 06:36:22;;;;;;;3.60;1.33;;;;;;;13.10;74.87;102009.81;4952306;29;20130;-48
2023/06/02 06:38:49;;;;;;;18.42;3.42;;;;;;;13.14;74.32;102009.94;4952949;29;20082;-45
2023/06/02 06:41:17;;;;;;;2.80;1.42;;;;;;;13.12;74.34;102013.06;4952550;29;20580;-44
2023/06/02 06:43:44;;;;;;;7.63;1.85;;;;;;;13.14;74.27;102015.50;4949791;28;20039;-44
2023/06/02 06:46:12;;;;;;;8.57;1.27;;;;;;;13.18;74.23;102022.06;4951543;29;20055;-44
2023/06/02 06:48:38;;;;;;;2.85;1.40;;;;;;;13.22;73.96;102014.66;4934583;29;20047;-45
2023/06/02 06:51:06;;;;;;;7.53;2.42;;;;;;;13.24;73.72;102020.72;4952122;29;20051;-44
2023/06/02 06:53:33;;;;;;;8.88;1.60;;;;;;;13.21;73.68;102021.41;4952408;29;20051;-44
2023/06/02 06:56:02;;;;;;;3.63;1.67;;;;;;;13.22;73.43;102023.00;4951977;29;20054;-44
2023/06/02 06:58:29;;;;;;;4.35;1.33;;;;;;;13.25;73.48;102025.13;4952473;29;20051;-45
2023/06/02 07:00:57;;;;;;;3.88;1.02;;;;;;;13.31;73.26;102023.81;4951116;29;20421;-44
2023/06/02 07:03:24;;;;;;;5.53;1.40;;;;;;;13.35;73.00;102021.97;4952495;29;20441;-44
2023/06/02 07:05:51;;;;;;;7.40;1.80;;;;;;;13.42;73.35;102020.31;4952063;29;20143;-45
2023/06/02 07:08:18;;;;;;;4.47;1.23;;;;;;;13.62;73.43;102023.50;4951992;29;20047;-52
2023/06/02 07:10:46;;;;;;;2.92;1.40;;;;;;;13.79;73.11;102026.22;4952017;29;20047;-45
2023/06/02 07:13:13;;;;;;;7.15;2.17;;;;;;;13.88;72.46;102027.78;4951965;29;20054;-45
2023/06/02 07:15:40;;;;;;;4.82;1.45;;;;;;;13.92;72.54;102030.72;4950578;29;20585;-46
2023/06/02 07:18:07;;;;;;;11.45;1.50;;;;;;;13.92;72.13;102020.41;4951293;29;20174;-44
2023/06/02 07:20:34;;;;;;;7.10;2.22;;;;;;;13.92;72.08;102028.78;4947383;28;20679;-45
2023/06/02 07:23:01;;;;;;;5.80;1.42;;;;;;;13.89;71.81;102026.66;4932441;29;20437;-45
2023/06/02 07:25:28;;;;;;;5.35;2.10;;;;;;;14.00;72.09;102025.09;4952076;29;20059;-48
2023/06/02 07:27:56;;;;;;;2.78;1.42;;;;;;;14.12;71.70;102026.31;4951889;29;20163;-44
2023/06/02 07:30:23;;;;;;;2.50;1.10;;;;;;;14.08;70.90;102028.16;4934088;29;20134;-44
2023/06/02 07:32:50;;;;;;;5.35;1.60;;;;;;;14.02;70.78;102033.13;4951966;28;20153;-49
2023/06/02 07:35:17;;;;;;;5.97;1.70;;;;;;;13.96;70.42;102028.88;4950733;29;20035;-44
2023/06/02 07:37:44;;;;;;;4.55;1.27;;;;;;;13.90;70.42;102019.91;4951588;29;20047;-46
2023/06/02 07:40:11;;;;;;;7.38;1.77;;;;;;;13.89;70.27;102015.50;4949160;28;20166;-45
2023/06/02 07:42:38;;;;;;;5.05;1.60;;;;;;;13.99;70.44;102023.47;4949464;29;20047;-46
2023/06/02 07:45:06;;;;;;;6.50;1.30;;;;;;;14.20;70.30;102017.09;4951094;29;20050;-44
2023/06/02 07:47:33;;;;;;;2.72;1.42;;;;;;;14.41;70.26;102017.94;4949459;28;20058;-45
2023/06/02 07:50:01;;;;;;;4.40;1.25;;;;;;;14.39;69.53;102028.63;4951117;29;20047;-45
2023/06/02 07:52:28;;;;;;;3.40;1.40;;;;;;;14.33;69.31;102029.97;4937725;29;20486;-45
2023/06/02 07:54:55;;;;;;;5.85;2.53;;;;;;;14.30;69.27;102034.22;4951232;29;20085;-47
2023/06/02 07:57:22;;;;;;;7.97;1.77;;;;;;;14.24;69.13;102043.13;4950960;29;20102;-46
2023/06/02 07:59:51;;;;;;;6.13;1.85;;;;;;;14.31;69.49;102032.25;4950848;28;20517;-44
2023/06/02 08:02:19;;;;;;;5.80;2.28;;;;;;;14.48;68.79;102032.16;4950363;29;20525;-46
2023/06/02 08:04:47;;;;;;;4.13;1.58;;;;;;;14.45;68.54;102032.84;4951130;29;20047;-46
2023/06/02 08:07:14;;;;;;;7.10;1.60;;;;;;;14.44;68.28;102036.78;4951127;29;20047;-53
2023/06/02 08:09:41;;;;;;;5.97;1.77;;;;;;;14.45;68.36;102044.00;4950250;29;20047;-39
2023/06/02 08:12:08;;;;;;;5.93;1.55;;;;;;;14.41;68.14;102043.84;4951232;28;20431;-45
2023/06/02 08:14:35;;;;;;;7.03;1.35;;;;;;;14.27;68.03;102042.47;4933511;29;20079;-48
2023/06/02 08:17:03;;;;;;;6.85;1.80;;;;;;;14.27;68.37;102036.91;4949659;29;20039;-44
2023/06/02 08:19:30;;;;;;;4.60;2.00;;;;;;;14.33;68.15;102035.53;4951140;29;20054;-44
2023/06/02 08:21:58;;;;;;;7.28;2.20;;;;;;;14.40;68.02;102042.19;4950603;29;20043;-45
2023/06/02 08:24:26;;;;;;;5.95;1.58;;;;;;;14.44;67.63;102045.97;4950236;29;20074;-44
2023/06/02 08:26:54;;;;;;;3.67;1.35;;;;;;;14.53;67.47;102043.09;4949788;28;20126;-44
2023/06/02 08:29:22;;;;;;;6.20;1.50;;;;;;;14.50;67.04;102046.56;4951133;29;20090;-44
2023/06/02 08:31:50;;;;;;;5.75;1.52;;;;;;;14.49;66.99;102050.50;4950705;29;20044;-45
2023/06/02 08:34:20;;;;;;;5.80;1.90;;;;;;;14.53;67.03;102052.25;4950575;29;20057;-49
2023/06/02 08:36:50;;;;;;;10.18;1.58;;;;;;;14.53;67.00;102045.91;4938590;28;20659;-45
2023/06/02 08:39:17;;;;;;;3.97;1.80;;;;;;;14.57;67.03;102035.69;4950454;29;20572;-44
2023/06/02 08:41:48;;;;;;;7.57;1.60;;;;;;;14.56;66.79;102043.22;4949992;29;20146;-45
2023/06/02 08:44:16;;;;;;;6.30;1.88;;;;;;;14.75;66.75;102037.16;4950651;29;20056;-44
2023/06/02 08:46:48;;;;;;;4.20;1.30;;;;;;;14.97;66.94;102035.97;4948899;28;20421;-46
2023/06/02 08:49:18;;;;;;;4.95;1.50;;;;;;;15.76;66.25;102038.34;4923943;29;20055;-49
2023/06/02 08:51:50;;;;;;;3.45;1.27;;;;;;;15.86;65.13;102039.88;4950481;29;20075;-46
2023/06/02 08:54:20;;;;;;;4.22;1.58;;;;;;;15.69;64.73;102043.69;4950555;29;20091;-45
2023/06/02 08:57:04;;;;;;;5.22;1.55;;;;;;;15.37;64.33;102041.75;4950607;29;20051;-44
2023/06/02 08:59:32;;;;;;;3.83;1.52;;;;;;;15.11;64.39;102048.47;4923521;29;20561;-45
2023/06/02 09:02:00;;;;;;;7.53;1.90;;;;;;;15.10;64.36;102032.06;4949862;29;20524;-48
2023/06/02 09:04:28;;;;;;;3.97;1.67;;;;;;;15.15;64.50;102043.81;4950889;29;20098;-47
2023/06/02 09:07:16;;;;;;;5.85;1.67;;;;;;;15.13;64.07;102034.97;4950751;29;20090;-46
2023/06/02 09:09:55;;;;;;;5.38;1.58;;;;;;;15.12;64.29;102046.47;4950879;29;20520;-45
2023/06/02 09:12:24;;;;;;;7.85;2.03;;;;;;;15.12;63.99;102040.88;4934563;29;20160;-45
2023/06/02 09:15:12;;;;;;;5.57;1.42;;;;;;;15.15;63.84;102031.84;4954318;29;20047;-44
2023/06/02 09:17:39;;;;;;;7.40;1.65;;;;;;;15.12;63.74;102035.31;4950572;28;20501;-45
2023/06/02 09:20:10;;;;;;;5.82;1.63;;;;;;;15.09;63.19;102036.81;4954060;29;20118;-44
2023/06/02 09:22:55;;;;;;;6.05;1.55;;;;;;;14.93;63.28;102046.19;4954212;29;20432;-45
2023/06/02 09:25:25;;;;;;;8.07;2.15;;;;;;;14.87;63.27;102034.44;4953981;28;20045;-45
2023/06/02 09:27:56;;;;;;;6.65;1.88;;;;;;;14.90;63.43;102038.50;4953851;29;20062;-45
2023/06/02 09:30:24;;;;;;;9.93;2.00;;;;;;;14.97;63.44;102038.75;4953848;29;20405;-45
2023/06/02 09:32:53;;;;;;;3.35;1.60;;;;;;;15.04;63.41;102050.97;4935653;29;20082;-45
2023/06/02 09:35:34;;;;;;;5.60;1.63;;;;;;;15.19;63.16;102053.13;4953529;29;20047;-47
2023/06/02 09:38:05;;;;;;;11.15;2.70;;;;;;;15.21;62.90;102036.84;4952297;28;20043;-45
2023/06/02 09:40:34;;;;;;;6.17;1.40;;;;;;;15.30;63.15;102047.09;4953141;29;20050;-45
2023/06/02 09:43:05;;;;;;;5.30;1.90;;;;;;;15.45;62.99;102049.22;4953814;29;20394;-45
2023/06/02 09:45:47;;;;;;;3.22;1.63;;;;;;;15.55;62.71;102040.41;4953570;29;20073;-44
2023/06/02 09:48:18;;;;;;;4.30;1.55;;;;;;;15.64;62.58;102041.97;4953019;29;20047;-46
2023/06/02 09:50:46;;;;;;;7.18;1.52;;;;;;;15.85;62.25;102053.00;4952609;29;20051;-45
2023/06/02 09:53:14;;;;;;;8.13;2.35;;;;;;;15.95;62.10;102052.53;4953430;29;20043;-44
2023/06/02 09:55:41;;;;;;;7.82;1.40;;;;;;;16.00;61.96;102049.50;4935409;29;20055;-44
2023/06/02 09:58:07;;;;;;;3.20;1.40;;;;;;;16.00;62.04;102048.69;4953138;29;20059;-45
2023/06/02 10:00:35;;;;;;;3.33;1.30;;;;;;;16.17;61.71;102043.69;4953186;29;20738;-48
2023/06/02 10:03:03;;;;;;;5.18;2.22;;;;;;;16.28;61.37;102055.97;4934120;29;20052;-45
2023/06/02 10:05:31;;;;;;;5.35;1.75;;;;;;;16.26;60.82;102046.31;4916942;29;20059;-45
2023/06/02 10:08:30;;;;;;;12.02;1.83;;;;;;;16.60;60.55;102050.59;4931622;29;20131;-45
2023/06/02 10:11:21;;;;;;;19.20;4.38;;;;;;;16.83;60.10;102043.28;4922211;29;20058;-45
2023/06/02 10:14:14;;;;;;;2.72;1.52;;;;;;;16.94;60.14;102045.19;4934097;29;20052;-46
2023/06/02 10:16:56;;;;;;;6.18;1.42;;;;;;;17.00;60.04;102054.16;4933820;29;20044;-45
2023/06/02 10:19:33;;;;;;;4.68;1.70;;;;;;;16.87;59.77;102055.38;4934055;29;20533;-50
2023/06/02 10:22:22;;;;;;;2.55;1.40;;;;;;;16.61;59.22;102053.03;4934100;29;20047;-45
2023/06/02 10:25:04;;;;;;;6.15;1.52;;;;;;;16.39;59.36;102039.53;4932499;29;20072;-45
2023/06/02 10:27:34;;;;;;;7.10;1.77;;;;;;;16.34;59.57;102043.41;4924703;29;20051;-45
2023/06/02 10:30:02;;;;;;;3.85;1.48;;;;;;;16.49;59.61;102043.84;4933908;29;20036;-44
2023/06/02 10:32:41;;;;;;;5.47;2.08;;;;;;;16.62;59.10;102040.69;4933609;29;20040;-45
2023/06/02 10:35:08;;;;;;;8.48;2.25;;;;;;;17.16;58.47;102034.59;4933961;29;20107;-45
2023/06/02 10:37:37;;;;;;;7.07;1.58;;;;;;;17.47;57.78;102043.03;4933080;29;20524;-44
2023/06/02 10:40:04;;;;;;;8.75;2.42;;;;;;;17.64;57.72;102051.91;4933821;29;20107;-45
2023/06/02 10:42:31;;;;;;;2.45;1.48;;;;;;;17.60;57.43;102048.22;4928508;29;20123;-44
2023/06/02 10:45:16;;;;;;;5.07;1.77;;;;;;;17.41;57.70;102050.91;4933532;29;20443;-44
2023/06/02 10:47:45;;;;;;;8.10;2.10;;;;;;;17.25;57.55;102054.84;4933325;29;20048;-45
2023/06/02 10:50:21;;;;;;;3.22;1.70;;;;;;;17.14;57.79;102053.72;4933339;29;20058;-45
2023/06/02 10:53:00;;;;;;;5.10;1.77;;;;;;;17.26;57.85;102048.88;4933414;29;20044;-44
2023/06/02 10:55:31;;;;;;;3.75;1.95;;;;;;;17.42;57.48;102049.69;4933506;29;20059;-45
2023/06/02 10:58:06;;;;;;;6.07;2.33;;;;;;;17.57;57.01;102062.13;4932576;29;20059;-46
2023/06/02 11:00:36;;;;;;;5.72;1.40;;;;;;;17.48;56.73;102062.28;4930860;29;20048;-45
2023/06/02 11:03:17;;;;;;;5.45;2.10;;;;;;;17.28;56.62;102070.91;4932482;29;20047;-52
2023/06/02 11:05:45;;;;;;;7.63;1.63;;;;;;;17.07;56.55;102061.94;4932970;29;20139;-49
2023/06/02 11:08:16;;;;;;;3.50;1.80;;;;;;;17.01;56.97;102065.00;4916248;29;20162;-45
2023/06/02 11:10:44;;;;;;;5.05;1.90;;;;;;;17.13;56.76;102057.72;4932575;29;20044;-45
2023/06/02 11:13:14;;;;;;;7.45;1.90;;;;;;;17.47;56.66;102060.63;4932997;29;20051;-44
2023/06/02 11:15:59;;;;;;;5.90;1.95;;;;;;;17.64;55.92;102063.13;4931669;29;20509;-46
2023/06/02 11:18:31;;;;;;;9.75;2.00;;;;;;;17.63;56.25;102061.50;4932568;29;20447;-45
2023/06/02 11:21:03;;;;;;;6.85;2.63;;;;;;;17.70;56.32;102062.84;4915643;29;20542;-45
2023/06/02 11:23:31;;;;;;;7.85;2.20;;;;;;;17.73;56.53;102059.34;4932786;29;20103;-50
2023/06/02 11:26:01;;;;;;;6.22;1.73;;;;;;;17.80;56.35;102059.50;4932700;29;20058;-45
2023/06/02 11:28:28;;;;;;;5.70;2.40;;;;;;;17.83;56.25;102061.59;4932493;29;20047;-44
2023/06/02 11:31:07;;;;;;;13.18;3.20;;;;;;;17.88;55.99;102059.31;4931554;29;20108;-45
2023/06/02 11:33:42;;;;;;;8.18;2.15;;;;;;;17.81;55.67;102061.13;4927647;29;20066;-44